Time;durP1;ratioP1;P1;durP2;ratioP2;P2;SDS_P1;SDS_P2;PMS_P1;PMS_P2;Temp;Humidity;BMP_temperature;BMP_pressure;BME280_temperature;BME280_humidity;BME280_pressure;Samples;Min_cycle;Max_cycle;Signal;HPM_P1;HPM_P2
2023/05/13 00:04:51;;;;;;;;;;;;;;;15.81;70.24;102247.25;20905578;28;19975;-57
2023/05/13 00:15:13;;;;;;;;;;;;;;;15.63;69.70;102246.91;20904749;28;19929;-55
2023/05/13 00:25:34;;;;;;;;;;;;;;;15.48;70.36;102252.53;20901111;28;19971;-56
2023/05/13 00:35:56;;;;;;;;;;;;;;;15.23;69.23;102254.06;20888515;28;19976;-56
2023/05/13 00:46:17;;;;;;;;;;;;;;;15.01;69.54;102254.66;20902280;28;19925;-57
2023/05/13 00:56:39;;;;;;;;;;;;;;;14.86;71.57;102255.03;20892503;28;19925;-56
2023/05/13 01:07:11;;;;;;;;;;;;;;;14.72;70.93;102248.44;20894803;28;20590;-57
2023/05/13 01:17:46;;;;;;;;;;;;;;;14.63;72.47;102254.69;20892420;28;19975;-56
2023/05/13 01:28:08;;;;;;;;;;;;;;;14.54;72.57;102265.34;20875283;28;19983;-56
2023/05/13 01:38:30;;;;;;;;;;;;;;;14.47;72.87;102260.31;20908560;28;19924;-56
2023/05/13 01:48:51;;;;;;;;;;;;;;;14.37;73.36;102277.91;20890766;28;19937;-58
2023/05/13 01:59:13;;;;;;;;;;;;;;;14.28;73.11;102270.31;20878140;28;19960;-55
2023/05/13 02:09:34;;;;;;;;;;;;;;;14.09;73.54;102266.34;20889490;28;20300;-56
2023/05/13 02:19:56;;;;;;;;;;;;;;;14.04;73.34;102263.84;20890392;28;19926;-58
2023/05/13 02:30:17;;;;;;;;;;;;;;;13.99;73.86;102270.03;20891694;28;19970;-55
2023/05/13 02:40:38;;;;;;;;;;;;;;;13.83;74.17;102263.41;20906487;28;19933;-56
2023/05/13 02:51:00;;;;;;;;;;;;;;;13.73;74.16;102260.16;20886700;28;19963;-55
2023/05/13 03:01:21;;;;;;;;;;;;;;;13.56;74.43;102258.75;20896707;28;20396;-56
2023/05/13 03:11:43;;;;;;;;;;;;;;;13.51;74.45;102258.00;20885429;28;20360;-56
2023/05/13 03:22:04;;;;;;;;;;;;;;;13.37;74.67;102260.00;20871504;28;19939;-56
2023/05/13 03:32:29;;;;;;;;;;;;;;;13.36;75.59;102261.75;20873577;28;20665;-55
2023/05/13 03:42:50;;;;;;;;;;;;;;;13.31;75.65;102262.72;20891295;28;19932;-56
2023/05/13 03:53:12;;;;;;;;;;;;;;;13.28;76.19;102267.94;20898178;28;19925;-58
2023/05/13 04:03:33;;;;;;;;;;;;;;;13.20;75.68;102273.31;20886079;28;19986;-55
2023/05/13 04:13:55;;;;;;;;;;;;;;;13.11;76.29;102281.28;20884967;28;19940;-56
2023/05/13 04:24:16;;;;;;;;;;;;;;;13.03;76.83;102303.91;20883994;28;19925;-56
2023/05/13 04:34:38;;;;;;;;;;;;;;;13.01;77.22;102296.13;20884611;28;19928;-55
2023/05/13 04:44:59;;;;;;;;;;;;;;;13.06;76.97;102302.13;20891025;28;20052;-55
2023/05/13 04:55:20;;;;;;;;;;;;;;;13.11;76.24;102318.50;20898072;28;20300;-56
2023/05/13 05:05:43;;;;;;;;;;;;;;;13.23;76.17;102326.97;20885132;28;19933;-58
2023/05/13 05:16:04;;;;;;;;;;;;;;;13.36;75.30;102337.16;20888663;28;19978;-57
2023/05/13 05:26:26;;;;;;;;;;;;;;;13.51;75.04;102336.03;20897336;28;19982;-57
2023/05/13 05:36:47;;;;;;;;;;;;;;;13.64;74.89;102335.75;20892265;28;19963;-55
2023/05/13 05:47:08;;;;;;;;;;;;;;;13.76;74.08;102334.69;20896659;28;19978;-56
2023/05/13 05:57:30;;;;;;;;;;;;;;;13.85;73.52;102344.91;20892037;28;19925;-56
2023/05/13 06:07:51;;;;;;;;;;;;;;;14.00;73.06;102339.41;20893194;28;19925;-58
2023/05/13 06:18:13;;;;;;;;;;;;;;;14.23;72.88;102347.59;20885986;28;19990;-56
2023/05/13 06:28:35;;;;;;;;;;;;;;;14.53;71.85;102346.13;20877930;28;19925;-57
2023/05/13 06:38:56;;;;;;;;;;;;;;;14.80;71.18;102335.94;20885319;28;19986;-55
2023/05/13 06:49:17;;;;;;;;;;;;;;;15.16;71.25;102339.44;20890621;28;19929;-56
2023/05/13 06:59:39;;;;;;;;;;;;;;;15.55;70.79;102334.97;20903395;28;20002;-55
2023/05/13 07:10:00;;;;;;;;;;;;;;;15.78;70.29;102335.25;20871224;28;20587;-55
2023/05/13 07:20:22;;;;;;;;;;;;;;;16.06;70.96;102330.94;20889793;28;19924;-56
2023/05/13 07:30:44;;;;;;;;;;;;;;;16.38;68.85;102323.03;20884582;28;20011;-56
2023/05/13 07:41:05;;;;;;;;;;;;;;;16.66;69.66;102329.19;20879016;28;20355;-54
2023/05/13 07:51:28;;;;;;;;;;;;;;;16.72;67.54;102328.97;20870081;28;19932;-55
2023/05/13 08:01:49;;;;;;;;;;;;;;;16.95;70.52;102323.88;20900979;28;19924;-56
2023/05/13 08:12:11;;;;;;;;;;;;;;;17.08;69.53;102326.94;20881745;28;19936;-56
2023/05/13 08:22:32;;;;;;;;;;;;;;;17.30;68.32;102319.22;20912254;28;19936;-55
2023/05/13 08:32:53;;;;;;;;;;;;;;;17.62;67.66;102314.63;20914615;28;19933;-58
2023/05/13 08:43:15;;;;;;;;;;;;;;;17.95;68.09;102307.31;20884465;28;19936;-58
2023/05/13 08:53:37;;;;;;;;;;;;;;;18.27;66.45;102306.13;20893341;28;19944;-58
2023/05/13 09:04:05;;;;;;;;;;;;;;;18.65;66.36;102298.50;20878669;28;19929;-58
2023/05/13 09:14:28;;;;;;;;;;;;;;;18.99;65.48;102301.47;20879755;28;20044;-58
2023/05/13 09:24:53;;;;;;;;;;;;;;;19.30;65.41;102305.44;20870509;28;19990;-68
2023/05/13 09:35:16;;;;;;;;;;;;;;;19.60;65.84;102285.75;20861993;28;20280;-58
2023/05/13 09:45:38;;;;;;;;;;;;;;;19.87;64.78;102300.28;20875822;28;19933;-58
2023/05/13 09:56:00;;;;;;;;;;;;;;;20.11;64.32;102285.19;20868686;28;19931;-60
2023/05/13 10:06:23;;;;;;;;;;;;;;;20.33;64.90;102281.50;20870144;28;19966;-58
2023/05/13 10:16:46;;;;;;;;;;;;;;;20.58;65.55;102268.03;20882693;28;20009;-61
2023/05/13 10:27:09;;;;;;;;;;;;;;;20.87;61.95;102268.31;20889325;28;19925;-59
2023/05/13 10:37:40;;;;;;;;;;;;;;;21.16;63.20;102247.59;20872196;28;19988;-59
2023/05/13 10:48:06;;;;;;;;;;;;;;;21.47;61.74;102232.75;20869654;28;20054;-59
2023/05/13 10:58:31;;;;;;;;;;;;;;;21.87;60.17;102228.84;20858990;28;19936;-58
2023/05/13 11:08:52;;;;;;;;;;;;;;;22.12;58.01;102226.59;20879720;28;19925;-59
2023/05/13 11:19:25;;;;;;;;;;;;;;;22.43;54.57;102208.09;20866093;28;19951;-58
2023/05/13 11:29:47;;;;;;;;;;;;;;;22.52;54.60;102204.94;20892056;28;19925;-58
2023/05/13 11:40:10;;;;;;;;;;;;;;;23.27;58.42;102204.00;20876778;28;19978;-59
2023/05/13 11:50:31;;;;;;;;;;;;;;;23.43;55.65;102186.28;20888533;28;19929;-58
2023/05/13 12:00:53;;;;;;;;;;;;;;;23.63;55.29;102185.88;20874188;28;19925;-59
2023/05/13 12:11:14;;;;;;;;;;;;;;;23.62;56.62;102185.03;20890070;28;19933;-59
2023/05/13 12:21:37;;;;;;;;;;;;;;;23.34;54.37;102194.78;20881625;28;19932;-60
2023/05/13 12:32:02;;;;;;;;;;;;;;;22.80;56.51;102193.63;20881747;28;19925;-58
2023/05/13 12:42:24;;;;;;;;;;;;;;;22.53;58.03;102195.19;20877941;28;19934;-58
2023/05/13 12:52:45;;;;;;;;;;;;;;;22.45;58.34;102187.72;20884921;28;20368;-59
2023/05/13 13:03:07;;;;;;;;;;;;;;;22.43;56.29;102186.13;20889253;28;20300;-59
2023/05/13 13:13:29;;;;;;;;;;;;;;;22.33;54.21;102180.53;20892981;28;19924;-59
2023/05/13 13:23:51;;;;;;;;;;;;;;;22.34;56.46;102179.56;20884449;28;19929;-58
2023/05/13 13:34:12;;;;;;;;;;;;;;;22.41;58.59;102164.25;20896051;28;19924;-58
2023/05/13 13:44:36;;;;;;;;;;;;;;;22.35;59.26;102160.19;20891305;28;19924;-59
2023/05/13 13:54:57;;;;;;;;;;;;;;;22.45;56.32;102153.41;20891692;28;19929;-59
2023/05/13 14:05:18;;;;;;;;;;;;;;;22.47;56.52;102148.91;20880491;28;19929;-58
2023/05/13 14:15:40;;;;;;;;;;;;;;;22.46;58.50;102130.53;20908734;28;19928;-58
2023/05/13 14:26:01;;;;;;;;;;;;;;;22.53;56.85;102119.53;20896578;28;19931;-58
2023/05/13 14:36:25;;;;;;;;;;;;;;;22.32;55.06;102118.16;20897929;28;19987;-58
2023/05/13 14:46:46;;;;;;;;;;;;;;;22.27;55.58;102112.28;20889191;28;20352;-58
2023/05/13 14:57:08;;;;;;;;;;;;;;;22.34;56.84;102110.97;20882181;28;19925;-58
2023/05/13 15:07:30;;;;;;;;;;;;;;;22.27;57.06;102114.91;20887552;28;19969;-57
2023/05/13 15:17:52;;;;;;;;;;;;;;;22.23;57.01;102096.75;20855929;28;20372;-57
2023/05/13 15:28:13;;;;;;;;;;;;;;;22.35;52.57;102102.16;20884692;28;19925;-58
2023/05/13 15:38:36;;;;;;;;;;;;;;;22.59;57.29;102090.19;20873213;28;20419;-57
2023/05/13 15:48:57;;;;;;;;;;;;;;;22.68;54.55;102089.63;20889596;28;20317;-57
2023/05/13 15:59:18;;;;;;;;;;;;;;;22.76;57.81;102087.34;20882164;28;19924;-55
2023/05/13 16:09:40;;;;;;;;;;;;;;;22.54;56.44;102084.25;20886147;28;19925;-54
2023/05/13 16:20:02;;;;;;;;;;;;;;;22.77;57.35;102075.88;20880150;28;19933;-55
2023/05/13 16:30:23;;;;;;;;;;;;;;;23.06;55.38;102070.56;20875481;28;19929;-56
2023/05/13 16:40:46;;;;;;;;;;;;;;;22.87;58.19;102069.06;20901792;28;20372;-55
2023/05/13 16:51:07;;;;;;;;;;;;;;;22.69;56.58;102083.38;20887306;28;20407;-56
2023/05/13 17:01:28;;;;;;;;;;;;;;;22.90;54.66;102068.91;20872770;28;19925;-54
2023/05/13 17:11:50;;;;;;;;;;;;;;;22.61;55.41;102063.69;20883693;28;19925;-55
2023/05/13 17:22:11;;;;;;;;;;;;;;;22.87;56.61;102063.78;20886404;28;19929;-57
2023/05/13 17:32:34;;;;;;;;;;;;;;;23.09;58.57;102062.47;20889189;28;20002;-59
2023/05/13 17:42:55;;;;;;;;;;;;;;;22.85;59.73;102068.31;20891052;28;19928;-57
2023/05/13 17:53:17;;;;;;;;;;;;;;;22.68;61.61;102068.50;20882776;28;19964;-55
2023/05/13 18:03:38;;;;;;;;;;;;;;;22.57;60.48;102070.94;20895113;28;19925;-56
2023/05/13 18:14:00;;;;;;;;;;;;;;;22.34;62.67;102081.13;20891863;28;19979;-57
2023/05/13 18:24:21;;;;;;;;;;;;;;;21.98;62.04;102086.75;20880311;28;19978;-56
2023/05/13 18:34:43;;;;;;;;;;;;;;;21.66;62.98;102090.34;20865609;28;19987;-57
2023/05/13 18:45:04;;;;;;;;;;;;;;;21.35;62.57;102099.09;20890500;28;20005;-57
2023/05/13 18:55:26;;;;;;;;;;;;;;;21.00;63.00;102106.22;20896167;28;20486;-58
2023/05/13 19:05:47;;;;;;;;;;;;;;;20.64;63.04;102128.28;20882025;28;19925;-57
2023/05/13 19:16:09;;;;;;;;;;;;;;;20.33;64.22;102128.97;20884640;28;20503;-58
2023/05/13 19:26:30;;;;;;;;;;;;;;;20.01;65.00;102133.19;20882350;28;19978;-56
2023/05/13 19:36:52;;;;;;;;;;;;;;;19.76;64.82;102142.31;20865392;28;19967;-57
2023/05/13 19:47:13;;;;;;;;;;;;;;;19.57;65.72;102151.94;20882806;28;19985;-58
2023/05/13 19:57:35;;;;;;;;;;;;;;;19.27;63.49;102148.03;20877519;28;19964;-57
2023/05/13 20:07:56;;;;;;;;;;;;;;;19.06;65.30;102150.69;20881499;28;19979;-57
2023/05/13 20:18:17;;;;;;;;;;;;;;;18.79;65.17;102141.41;20888133;28;19932;-56
2023/05/13 20:28:39;;;;;;;;;;;;;;;18.58;65.89;102152.81;20892225;28;19925;-58
2023/05/13 20:39:00;;;;;;;;;;;;;;;18.43;66.33;102153.44;20888174;28;19929;-57
2023/05/13 20:49:22;;;;;;;;;;;;;;;18.27;67.10;102147.09;20889527;28;19936;-57
2023/05/13 20:59:43;;;;;;;;;;;;;;;18.13;67.59;102149.41;20904591;28;20012;-56
2023/05/13 21:10:05;;;;;;;;;;;;;;;18.06;67.85;102145.31;20879129;28;19979;-56
2023/05/13 21:20:27;;;;;;;;;;;;;;;17.88;68.07;102144.31;20884418;28;20305;-56
2023/05/13 21:30:48;;;;;;;;;;;;;;;17.75;68.43;102143.06;20871511;28;19932;-58
2023/05/13 21:41:09;;;;;;;;;;;;;;;17.62;68.71;102151.44;20873343;28;19928;-56
2023/05/13 21:51:31;;;;;;;;;;;;;;;17.52;68.83;102150.09;20870251;28;20349;-57
2023/05/13 22:01:53;;;;;;;;;;;;;;;17.44;68.91;102147.72;20872502;28;20004;-56
2023/05/13 22:12:14;;;;;;;;;;;;;;;17.28;69.77;102150.97;20875212;28;19929;-56
2023/05/13 22:22:35;;;;;;;;;;;;;;;17.10;69.80;102142.84;20881538;28;19986;-57
2023/05/13 22:32:57;;;;;;;;;;;;;;;16.93;70.43;102139.13;20889179;28;19944;-57
2023/05/13 22:43:18;;;;;;;;;;;;;;;16.86;69.57;102133.28;20889899;28;19976;-56
2023/05/13 22:53:40;;;;;;;;;;;;;;;16.79;68.71;102131.75;20890700;28;20287;-56
2023/05/13 23:04:01;;;;;;;;;;;;;;;16.73;67.73;102132.00;20888559;28;19970;-56
2023/05/13 23:14:24;;;;;;;;;;;;;;;16.65;66.57;102123.56;20888740;28;20335;-56
2023/05/13 23:24:45;;;;;;;;;;;;;;;16.54;65.92;102124.81;20890746;28;19979;-57
2023/05/13 23:35:07;;;;;;;;;;;;;;;16.45;62.24;102115.50;20888306;28;19933;-57
2023/05/13 23:45:29;;;;;;;;;;;;;;;16.35;62.41;102118.47;20886767;28;19929;-56
2023/05/13 23:55:51;;;;;;;;;;;;;;;16.30;64.91;102110.78;20884285;28;20675;-56
